Dobbin, Texas
Current Conditions -  °F | °C
As of 12:53 PM on Friday 24 Oct 2014 (Local Time) from KCXO Reporting Station
Clear Clear  
Wind Chill: 75°   Ceiling: Unl
Heat Index: 75°   Visibility: 10mi
Dew Point: 50°   Wind: 5mph
Humidity: 41%   Direction: 320°NW
Pressure: 30.16"   Gusts: NA
Location:  30.37°N, 95.78°W
Report Text: KCXO 241753Z 32004KT 10SM CLR 24/10 A3016 RMK AO2 SLP212 T02390100 10244 20100 58010
Loading
Personal Weather Stations






























Interactive Weather Map
Tropical Storm Tracking
New forecast layout! Learn more

10-Day Weather Forecast

Advertisements
Track Severe Weather on mobile